createdAt,value
2022-08-04T00:00:40.881Z,1.30
2022-08-04T00:03:30.061Z,1.23
2022-08-04T00:06:06.952Z,1.20
2022-08-04T00:08:59.365Z,1.40
2022-08-04T00:11:33.467Z,1.40
2022-08-04T00:14:07.391Z,1.47
2022-08-04T00:16:40.845Z,1.30
2022-08-04T00:19:23.741Z,1.57
2022-08-04T00:21:57.844Z,1.60
2022-08-04T00:24:29.199Z,1.87
2022-08-04T00:26:59.077Z,1.70
2022-08-04T00:29:29.600Z,1.80
2022-08-04T00:31:59.310Z,1.87
2022-08-04T00:34:32.294Z,1.80
2022-08-04T00:37:01.943Z,1.97
2022-08-04T00:39:32.637Z,1.43
2022-08-04T00:42:36.979Z,1.60
2022-08-04T00:46:15.511Z,1.50
2022-08-04T00:48:26.140Z,1.40
2022-08-04T00:51:43.767Z,1.60
2022-08-04T00:54:37.486Z,1.57
2022-08-04T00:57:47.349Z,1.30
2022-08-04T01:00:18.004Z,1.12
2022-08-04T01:03:20.603Z,1.67
2022-08-04T01:06:00.458Z,1.17
2022-08-04T01:09:24.062Z,0.90
2022-08-04T01:12:31.167Z,0.80
2022-08-04T01:15:14.131Z,0.80
2022-08-04T01:18:06.385Z,1.60
2022-08-04T01:20:42.902Z,1.47
2022-08-04T01:23:42.721Z,1.30
2022-08-04T01:26:43.881Z,1.30
2022-08-04T01:29:14.839Z,1.20
2022-08-04T01:32:05.839Z,1.40
2022-08-04T01:34:45.785Z,1.10
2022-08-04T01:37:51.844Z,1.20
2022-08-04T01:40:23.143Z,1.57
2022-08-04T01:42:55.418Z,1.33
2022-08-04T01:45:26.739Z,1.33
2022-08-04T01:47:58.411Z,1.27
2022-08-04T01:50:30.469Z,1.43
2022-08-04T01:53:00.360Z,1.70
2022-08-04T01:55:54.252Z,1.83
2022-08-04T01:58:03.522Z,1.80
2022-08-04T02:00:33.009Z,1.50
2022-08-04T02:03:02.592Z,1.40
2022-08-04T02:06:03.822Z,1.40
2022-08-04T02:08:13.431Z,1.40
2022-08-04T02:11:02.021Z,1.37
2022-08-04T02:13:56.763Z,0.87
2022-08-04T02:16:52.499Z,1.40
2022-08-04T02:19:48.051Z,1.43
2022-08-04T02:22:21.533Z,1.27
2022-08-04T02:25:09.640Z,1.40
2022-08-04T02:28:00.003Z,1.10
2022-08-04T02:30:32.182Z,1.30
2022-08-04T02:33:04.818Z,1.20
2022-08-04T02:35:41.458Z,1.10
2022-08-04T02:38:25.292Z,1.50
2022-08-04T02:41:00.346Z,1.30
2022-08-04T02:43:51.868Z,1.03
2022-08-04T02:46:06.121Z,1.73
2022-08-04T02:48:41.337Z,1.33
2022-08-04T02:51:14.472Z,1.60
2022-08-04T02:53:45.051Z,1.40
2022-08-04T02:56:18.132Z,1.20
2022-08-04T02:58:52.041Z,1.37
2022-08-04T03:01:24.238Z,1.30
2022-08-04T03:04:06.929Z,2.20
2022-08-04T03:07:17.225Z,1.30
2022-08-04T03:10:14.691Z,1.07
2022-08-04T03:13:05.062Z,1.20
2022-08-04T03:16:11.957Z,1.50
2022-08-04T03:19:11.672Z,1.40
2022-08-04T03:22:35.771Z,1.17
2022-08-04T03:25:57.749Z,1.03
2022-08-04T03:28:43.325Z,1.00
2022-08-04T03:31:53.434Z,0.90
2022-08-04T03:34:44.352Z,0.87
2022-08-04T03:38:09.931Z,1.47
2022-08-04T03:41:15.378Z,1.83
2022-08-04T03:44:22.710Z,1.17
2022-08-04T03:47:22.928Z,1.33
2022-08-04T03:50:21.507Z,1.40
2022-08-04T03:53:34.464Z,1.47
2022-08-04T03:56:20.753Z,1.60
2022-08-04T03:59:12.454Z,1.80
2022-08-04T04:02:02.659Z,1.57
2022-08-04T04:04:49.336Z,1.60
2022-08-04T04:07:59.737Z,1.00
2022-08-04T04:11:04.402Z,1.00
2022-08-04T04:13:44.335Z,1.70
2022-08-04T04:16:34.954Z,1.60
2022-08-04T04:19:31.203Z,1.53
2022-08-04T04:22:20.194Z,1.00
2022-08-04T04:25:19.973Z,1.33
2022-08-04T04:28:45.273Z,1.43
2022-08-04T04:31:35.071Z,1.50
2022-08-04T04:34:46.086Z,1.10
2022-08-04T04:37:23.995Z,1.23
2022-08-04T04:40:09.944Z,1.30
2022-08-04T04:42:50.035Z,1.50
2022-08-04T04:45:44.187Z,1.13
2022-08-04T04:48:44.139Z,1.13
2022-08-04T04:51:34.803Z,1.70
2022-08-04T04:54:31.137Z,1.70
2022-08-04T04:57:54.435Z,1.90
2022-08-04T05:00:14.152Z,1.50
2022-08-04T05:03:07.268Z,1.47
2022-08-04T05:06:21.756Z,1.50
2022-08-04T05:09:19.030Z,1.30
2022-08-04T05:14:24.839Z,1.13
2022-08-04T05:14:55.939Z,1.40
2022-08-04T05:17:33.109Z,1.23
2022-08-04T05:20:15.895Z,1.23
2022-08-04T05:26:00.338Z,1.43
2022-08-04T05:28:44.091Z,1.00
2022-08-04T05:31:29.911Z,1.43
2022-08-04T05:34:15.809Z,1.80
2022-08-04T05:36:52.325Z,2.03
2022-08-04T05:39:34.115Z,2.80
2022-08-04T05:42:04.380Z,2.80
2022-08-04T05:44:35.670Z,3.13
2022-08-04T05:47:07.894Z,4.27
2022-08-04T05:49:39.536Z,4.13
2022-08-04T05:52:11.813Z,4.13
2022-08-04T05:54:42.548Z,3.20
2022-08-04T05:57:13.236Z,3.50
2022-08-04T05:59:47.356Z,3.60
2022-08-04T06:02:19.514Z,4.57
2022-08-04T06:04:52.272Z,4.07
2022-08-04T06:07:22.866Z,3.93
2022-08-04T06:09:52.418Z,3.57
2022-08-04T06:12:41.355Z,3.33
2022-08-04T06:15:14.694Z,3.03
2022-08-04T06:18:33.814Z,3.20
2022-08-04T06:20:34.688Z,3.10
2022-08-04T06:23:14.700Z,3.33
2022-08-04T06:25:51.607Z,3.20
2022-08-04T06:28:22.546Z,2.80
2022-08-04T06:30:53.884Z,2.97
2022-08-04T06:33:29.064Z,2.93
2022-08-04T06:36:00.614Z,3.07
2022-08-04T06:38:32.848Z,2.77
2022-08-04T06:41:03.921Z,3.40
2022-08-04T06:43:42.894Z,2.90
2022-08-04T06:46:09.280Z,3.30
2022-08-04T06:48:39.570Z,3.33
2022-08-04T06:51:27.050Z,2.50
2022-08-04T06:53:41.411Z,2.40
2022-08-04T06:56:12.607Z,3.63
2022-08-04T06:58:44.427Z,2.80
2022-08-04T07:01:17.882Z,2.57
2022-08-04T07:03:50.695Z,2.42
2022-08-04T07:06:19.016Z,2.47
2022-08-04T07:08:49.182Z,2.40
2022-08-04T07:11:21.344Z,2.25
2022-08-04T07:13:52.325Z,2.20
2022-08-04T07:16:30.767Z,2.12
2022-08-04T07:18:55.644Z,2.60
2022-08-04T07:21:27.370Z,2.35
2022-08-04T07:23:56.912Z,2.10
2022-08-04T07:26:30.671Z,2.30
2022-08-04T07:29:00.926Z,2.17
2022-08-04T07:31:34.017Z,2.20
2022-08-04T07:34:17.658Z,2.10
2022-08-04T07:36:49.324Z,2.05
2022-08-04T07:39:07.354Z,2.20
2022-08-04T07:41:37.964Z,2.00
2022-08-04T07:44:08.792Z,1.80
2022-08-04T07:46:39.233Z,2.27
2022-08-04T07:49:10.389Z,2.10
2022-08-04T07:51:40.774Z,2.70
2022-08-04T07:54:11.253Z,2.35
2022-08-04T07:56:42.612Z,2.40
2022-08-04T07:59:12.280Z,1.85
2022-08-04T08:01:43.128Z,2.15
2022-08-04T08:04:13.627Z,2.80
2022-08-04T08:06:44.077Z,2.60
2022-08-04T08:09:18.031Z,1.92
2022-08-04T08:12:38.226Z,1.90
2022-08-04T08:14:23.830Z,2.02
2022-08-04T08:16:53.579Z,1.72
2022-08-04T08:19:23.187Z,1.85
2022-08-04T08:21:58.422Z,2.00
2022-08-04T08:24:24.527Z,1.90
2022-08-04T08:26:54.068Z,2.05
2022-08-04T08:29:24.311Z,1.75
2022-08-04T08:31:55.447Z,1.65
2022-08-04T08:34:28.022Z,2.20
2022-08-04T08:37:25.069Z,2.40
2022-08-04T08:40:13.503Z,1.70
2022-08-04T08:44:04.611Z,1.60
2022-08-04T08:46:48.599Z,1.12
2022-08-04T08:50:02.873Z,1.00
2022-08-04T08:52:56.605Z,1.22
2022-08-04T08:55:41.818Z,1.20
2022-08-04T08:58:45.223Z,1.02
2022-08-04T09:01:51.075Z,1.15
2022-08-04T09:04:43.192Z,1.17
2022-08-04T09:07:52.204Z,1.57
2022-08-04T09:10:35.042Z,1.50
2022-08-04T09:13:09.498Z,1.47
2022-08-04T09:15:48.140Z,1.95
2022-08-04T09:18:28.369Z,2.40
2022-08-04T09:21:14.373Z,2.37
2022-08-04T09:24:00.707Z,2.25
2022-08-04T09:26:34.861Z,3.00
2022-08-04T09:29:20.492Z,3.05
2022-08-04T09:32:07.836Z,3.50
2022-08-04T09:35:16.270Z,3.62
2022-08-04T09:37:50.442Z,3.00
2022-08-04T09:40:53.606Z,4.63
2022-08-04T09:43:58.949Z,3.15
2022-08-04T09:46:43.328Z,2.80
2022-08-04T09:49:32.469Z,3.05
2022-08-04T09:52:09.345Z,2.80
2022-08-04T09:54:54.687Z,3.08
2022-08-04T09:57:40.219Z,3.60
2022-08-04T10:00:20.447Z,4.37
2022-08-04T10:03:00.638Z,4.25
2022-08-04T10:05:54.791Z,6.28
2022-08-04T10:09:14.069Z,5.28
2022-08-04T10:12:19.834Z,4.10
2022-08-04T10:15:06.061Z,2.90
2022-08-04T10:17:51.825Z,2.72
2022-08-04T10:20:49.369Z,3.70
2022-08-04T10:23:56.754Z,3.62
2022-08-04T10:26:26.965Z,4.65
2022-08-04T10:29:09.951Z,3.87
2022-08-04T10:31:52.998Z,3.92
2022-08-04T10:34:27.115Z,3.83
2022-08-04T10:37:59.971Z,7.12
2022-08-04T10:40:38.250Z,5.67
2022-08-04T10:43:38.088Z,5.55
2022-08-04T10:46:30.127Z,4.97
2022-08-04T10:49:12.834Z,4.15
2022-08-04T10:52:04.628Z,3.60
2022-08-04T10:55:04.251Z,2.70
2022-08-04T10:57:44.278Z,2.80
2022-08-04T11:00:26.302Z,2.10
2022-08-04T11:03:24.854Z,1.90
2022-08-04T11:06:05.621Z,1.85
2022-08-04T11:08:39.745Z,1.65
2022-08-04T11:12:00.567Z,1.62
2022-08-04T11:14:20.324Z,1.72
2022-08-04T11:17:06.639Z,1.35
2022-08-04T11:19:53.667Z,1.57
2022-08-04T11:22:27.930Z,1.87
2022-08-04T11:27:48.828Z,1.87
2022-08-04T11:30:21.077Z,1.98
2022-08-04T11:33:07.140Z,1.70
2022-08-04T11:36:00.190Z,1.57
2022-08-04T11:38:46.080Z,1.85
2022-08-04T11:41:24.822Z,1.40
2022-08-04T11:44:03.959Z,1.90
2022-08-04T11:46:46.483Z,2.17
2022-08-04T11:49:56.959Z,1.82
2022-08-04T11:52:22.770Z,1.60
2022-08-04T11:54:54.667Z,1.50
2022-08-04T11:57:35.639Z,1.82
2022-08-04T11:59:59.457Z,1.50
2022-08-04T12:02:41.055Z,1.45
2022-08-04T12:05:23.526Z,1.72
2022-08-04T12:07:59.672Z,2.00
2022-08-04T12:10:54.633Z,2.10
2022-08-04T12:13:44.700Z,1.87
2022-08-04T12:16:45.492Z,1.40
2022-08-04T12:19:25.216Z,1.65
2022-08-04T12:22:00.976Z,1.72
2022-08-04T12:24:35.762Z,1.85
2022-08-04T12:27:10.014Z,1.70
2022-08-04T12:29:42.698Z,1.72
2022-08-04T12:32:27.678Z,1.30
2022-08-04T12:35:10.471Z,1.27
2022-08-04T12:37:53.569Z,1.42
2022-08-04T12:40:31.184Z,1.35
2022-08-04T12:43:20.387Z,0.90
2022-08-04T12:46:08.355Z,1.30
2022-08-04T12:48:41.164Z,1.37
2022-08-04T12:52:06.686Z,1.40
2022-08-04T12:53:51.067Z,1.12
2022-08-04T12:56:22.923Z,1.20
2022-08-04T12:58:56.461Z,1.20
2022-08-04T13:02:06.735Z,0.95
2022-08-04T13:04:24.559Z,1.10
2022-08-04T13:07:08.506Z,1.12
2022-08-04T13:09:40.001Z,1.22
2022-08-04T13:12:16.176Z,1.12
2022-08-04T13:14:50.174Z,1.10
2022-08-04T13:17:20.302Z,1.40
2022-08-04T13:19:53.254Z,1.10
2022-08-04T13:22:29.835Z,1.10
2022-08-04T13:26:41.411Z,0.95
2022-08-04T13:30:08.895Z,1.37
2022-08-04T13:30:24.443Z,1.20
2022-08-04T13:32:39.261Z,1.07
2022-08-04T13:35:13.172Z,1.40
2022-08-04T13:37:44.725Z,1.20
2022-08-04T13:40:16.875Z,1.50
2022-08-04T13:42:49.880Z,1.67
2022-08-04T13:45:23.363Z,1.70
2022-08-04T13:48:20.212Z,1.37
2022-08-04T13:50:35.287Z,1.05
2022-08-04T13:53:05.375Z,1.20
2022-08-04T13:55:37.836Z,1.17
2022-08-04T13:58:25.730Z,1.45
2022-08-04T14:01:09.094Z,1.30
2022-08-04T14:03:55.159Z,1.35
2022-08-04T14:06:29.088Z,1.07
2022-08-04T14:09:19.166Z,1.17
2022-08-04T14:12:10.825Z,1.20
2022-08-04T14:14:30.413Z,0.95
2022-08-04T14:17:04.632Z,0.93
2022-08-04T14:19:58.435Z,1.10
2022-08-04T14:22:33.561Z,1.50
2022-08-04T14:25:16.898Z,1.35
2022-08-04T14:27:56.200Z,1.10
2022-08-04T14:30:38.823Z,1.05
2022-08-04T14:33:59.594Z,1.20
2022-08-04T14:35:50.535Z,1.50
2022-08-04T14:38:15.807Z,1.30
2022-08-04T14:40:45.805Z,1.10
2022-08-04T14:43:19.461Z,1.07
2022-08-04T14:45:54.132Z,0.82
2022-08-04T14:48:25.432Z,0.90
2022-08-04T14:50:55.217Z,1.00
2022-08-04T14:53:29.001Z,0.90
2022-08-04T14:56:01.578Z,1.22
2022-08-04T14:58:39.200Z,1.67
2022-08-04T15:01:13.073Z,1.22
2022-08-04T15:03:50.739Z,1.10
2022-08-04T15:06:21.910Z,1.17
2022-08-04T15:08:49.261Z,0.95
2022-08-04T15:11:23.396Z,1.40
2022-08-04T15:13:50.687Z,1.20
2022-08-04T15:16:21.519Z,1.30
2022-08-04T15:18:52.748Z,0.90
2022-08-04T15:21:25.798Z,0.90
2022-08-04T15:23:57.317Z,1.20
2022-08-04T15:26:45.714Z,1.10
2022-08-04T15:29:20.218Z,1.27
2022-08-04T15:32:06.198Z,0.90
2022-08-04T15:34:23.796Z,1.30
2022-08-04T15:37:00.668Z,0.88
2022-08-04T15:40:01.268Z,0.78
2022-08-04T15:42:44.462Z,0.95
2022-08-04T15:45:23.842Z,0.80
2022-08-04T15:48:14.540Z,1.12
2022-08-04T15:51:05.389Z,1.00
2022-08-04T15:54:02.139Z,1.10
2022-08-04T15:56:34.006Z,1.20
2022-08-04T15:59:03.493Z,1.00
2022-08-04T16:01:33.055Z,1.98
2022-08-04T16:04:05.625Z,1.20
2022-08-04T16:06:43.392Z,1.00
2022-08-04T16:09:25.844Z,1.07
2022-08-04T16:11:57.488Z,1.00
2022-08-04T16:14:36.025Z,0.70
2022-08-04T16:17:18.020Z,1.25
2022-08-04T16:19:53.180Z,0.85
2022-08-04T16:22:41.544Z,1.00
2022-08-04T16:25:11.633Z,0.95
2022-08-04T16:27:45.022Z,1.20
2022-08-04T16:30:16.508Z,1.10
2022-08-04T16:32:48.782Z,0.85
2022-08-04T16:35:28.428Z,1.12
2022-08-04T16:38:14.502Z,1.20
2022-08-04T16:40:44.803Z,1.10
2022-08-04T16:43:18.530Z,1.10
2022-08-04T16:46:03.661Z,0.98
2022-08-04T16:48:36.427Z,0.80
2022-08-04T16:51:10.636Z,0.53
2022-08-04T16:53:53.858Z,1.00
2022-08-04T16:56:19.450Z,0.70
2022-08-04T16:58:54.372Z,0.78
2022-08-04T17:01:33.152Z,0.78
2022-08-04T17:03:57.621Z,0.80
2022-08-04T17:06:31.568Z,0.80
2022-08-04T17:09:14.395Z,0.95
2022-08-04T17:11:46.275Z,0.93
2022-08-04T17:14:17.308Z,0.95
2022-08-04T17:16:46.847Z,0.80
2022-08-04T17:19:19.833Z,2.35
2022-08-04T17:21:49.312Z,0.70
2022-08-04T17:24:18.894Z,0.78
2022-08-04T17:26:54.077Z,0.82
2022-08-04T17:31:57.848Z,0.70
2022-08-04T17:34:27.645Z,0.70
2022-08-04T17:37:17.675Z,0.80
2022-08-04T17:39:34.972Z,0.65
2022-08-04T17:42:02.869Z,0.70
2022-08-04T17:44:40.306Z,0.60
2022-08-04T17:47:21.502Z,0.50
2022-08-04T17:49:53.535Z,0.70
2022-08-04T17:52:39.825Z,0.70
2022-08-04T17:55:02.795Z,0.80
2022-08-04T17:57:32.757Z,0.50
2022-08-04T18:00:02.303Z,0.75
2022-08-04T18:02:35.156Z,0.60
2022-08-04T18:05:11.461Z,0.50
2022-08-04T18:08:39.249Z,0.50
2022-08-04T18:10:32.815Z,0.60
2022-08-04T18:12:47.275Z,0.53
2022-08-04T18:15:40.586Z,1.40
2022-08-04T18:20:31.655Z,0.60
2022-08-04T18:23:01.146Z,0.60
2022-08-04T18:25:50.472Z,0.60
2022-08-04T18:28:01.875Z,0.70
2022-08-04T18:30:54.021Z,0.70
2022-08-04T18:33:24.638Z,0.70
2022-08-04T18:36:33.283Z,0.60
2022-08-04T18:38:22.645Z,0.60
2022-08-04T18:40:52.924Z,0.80
2022-08-04T18:43:14.354Z,0.88
2022-08-04T18:45:51.321Z,0.50
2022-08-04T18:48:14.153Z,0.70
2022-08-04T18:51:10.952Z,0.60
2022-08-04T18:53:15.745Z,0.70
2022-08-04T18:55:56.997Z,0.73
2022-08-04T18:58:27.276Z,0.87
2022-08-04T19:00:48.530Z,0.90
2022-08-04T19:03:22.057Z,0.80
2022-08-04T19:05:49.337Z,0.70
2022-08-04T19:08:34.684Z,0.90
2022-08-04T19:10:54.355Z,0.70
2022-08-04T19:13:25.599Z,0.80
2022-08-04T19:15:55.666Z,0.70
2022-08-04T19:18:28.143Z,0.80
2022-08-04T19:20:57.641Z,0.77
2022-08-04T19:24:28.060Z,1.13
2022-08-04T19:26:02.451Z,1.57
2022-08-04T19:28:35.492Z,0.97
2022-08-04T19:31:10.065Z,0.90
2022-08-04T19:33:58.532Z,0.90
2022-08-04T19:36:13.582Z,0.70
2022-08-04T19:38:45.685Z,0.90
2022-08-04T19:41:15.271Z,0.67
2022-08-04T19:43:48.182Z,0.80
2022-08-04T19:46:18.138Z,0.87
2022-08-04T19:48:59.258Z,0.70
2022-08-04T19:51:20.459Z,0.80
2022-08-04T19:53:56.079Z,0.97
2022-08-04T19:56:25.646Z,1.30
2022-08-04T19:58:54.762Z,0.87
2022-08-04T20:01:32.867Z,1.40
2022-08-04T20:04:08.490Z,1.07
2022-08-04T20:06:26.752Z,0.80
2022-08-04T20:08:58.801Z,0.80
2022-08-04T20:11:28.283Z,1.20
2022-08-04T20:13:57.762Z,0.80
2022-08-04T20:16:29.947Z,1.03
2022-08-04T20:19:03.134Z,1.00
2022-08-04T20:21:55.574Z,0.80
2022-08-04T20:24:38.951Z,0.80
2022-08-04T20:26:33.732Z,1.43
2022-08-04T20:29:03.210Z,0.90
2022-08-04T20:31:33.683Z,1.50
2022-08-04T20:34:04.879Z,1.33
2022-08-04T20:36:34.363Z,0.60
2022-08-04T20:39:06.093Z,1.13
2022-08-04T20:41:37.309Z,0.78
2022-08-04T20:44:10.646Z,0.80
2022-08-04T20:46:39.832Z,0.70
2022-08-04T20:49:09.447Z,0.87
2022-08-04T20:51:46.236Z,0.70
2022-08-04T20:54:22.977Z,0.80
2022-08-04T20:56:51.023Z,0.70
2022-08-04T20:59:20.921Z,0.50
2022-08-04T21:01:53.854Z,0.70
2022-08-04T21:04:32.316Z,0.77
2022-08-04T21:07:08.152Z,0.90
2022-08-04T21:09:42.495Z,0.50
2022-08-04T21:12:28.322Z,0.93
2022-08-04T21:14:48.493Z,1.10
2022-08-04T21:17:18.940Z,0.97
2022-08-04T21:19:50.328Z,0.83
2022-08-04T21:22:29.809Z,0.80
2022-08-04T21:24:52.238Z,0.83
2022-08-04T21:27:22.402Z,0.80
2022-08-04T21:29:52.060Z,0.80
2022-08-04T21:32:22.011Z,0.70
2022-08-04T21:34:54.515Z,0.60
2022-08-04T21:37:24.144Z,0.60
2022-08-04T21:39:59.463Z,0.80
2022-08-04T21:44:57.844Z,1.43
2022-08-04T21:47:45.777Z,0.60
2022-08-04T21:49:58.517Z,0.80
2022-08-04T21:52:29.419Z,0.60
2022-08-04T21:54:58.912Z,0.80
2022-08-04T21:57:30.152Z,0.80
2022-08-04T22:00:01.368Z,0.90
2022-08-04T22:02:32.557Z,0.87
2022-08-04T22:05:02.081Z,0.70
2022-08-04T22:07:49.891Z,0.70
2022-08-04T22:10:04.081Z,0.80
2022-08-04T22:12:34.187Z,0.80
2022-08-04T22:16:02.679Z,0.80
2022-08-04T22:17:37.547Z,0.80
2022-08-04T22:20:08.461Z,0.77
2022-08-04T22:22:41.414Z,0.90
2022-08-04T22:28:03.761Z,0.60
2022-08-04T22:30:37.802Z,1.37
2022-08-04T22:33:10.182Z,0.80
2022-08-04T22:35:49.428Z,0.60
2022-08-04T22:38:27.919Z,0.50
2022-08-04T22:40:47.583Z,0.70
2022-08-04T22:43:32.167Z,0.50
2022-08-04T22:45:47.797Z,0.60
2022-08-04T22:48:17.322Z,0.60
2022-08-04T22:50:46.804Z,0.70
2022-08-04T22:53:17.746Z,0.67
2022-08-04T22:56:06.631Z,0.60
2022-08-04T22:58:18.793Z,0.73
2022-08-04T23:00:53.094Z,0.80
2022-08-04T23:03:36.550Z,0.67
2022-08-04T23:05:50.827Z,0.70
2022-08-04T23:08:20.642Z,0.83
2022-08-04T23:10:50.225Z,0.73
2022-08-04T23:13:22.917Z,0.80
2022-08-04T23:15:52.771Z,0.70
2022-08-04T23:18:22.623Z,1.07
2022-08-04T23:20:52.798Z,0.77
2022-08-04T23:23:22.450Z,0.90
2022-08-04T23:26:07.581Z,2.07
2022-08-04T23:28:23.797Z,1.67
2022-08-04T23:33:49.111Z,1.70
2022-08-04T23:36:08.483Z,1.20
2022-08-04T23:38:39.678Z,1.33
2022-08-04T23:41:17.997Z,1.00
2022-08-04T23:43:54.997Z,0.80
2022-08-04T23:46:19.817Z,0.63
2022-08-04T23:48:51.933Z,0.57
2022-08-04T23:51:22.405Z,0.70
2022-08-04T23:54:01.814Z,0.40
2022-08-04T23:56:23.254Z,0.97
2022-08-04T23:58:54.176Z,0.60
